Terminal Aerodrome Forecast
Issued by NWS

Home | Current Version | Previous Version | Text Only | Print | Product List | Glossary On
Versions: 1 2 3 4 5 6 7 8 9 10 11 12 13 14 15
000
FTUS46 KMTR 262338
TAFOAK
TAF
KOAK 262338Z 2700/2806 20004KT P6SM FEW040 BKN050 OVC060
     FM270200 24008KT P6SM -RA BKN050 OVC080
     FM270800 26008KT P6SM VCSH BKN020 OVC030
     FM271200 28008KT P6SM BKN030 OVC050
     FM272100 29013KT P6SM FEW040 SCT200
     FM280400 30006KT P6SM FEW025=

USA.gov is the U.S. government's official web portal to all federal, state and local government web resources and services.